This is the latest recevied weather packets stored in our database for station/object KP4CRN. If no packets are shown the sender has not sent any weather packets the latest 10 day(s).
| Time | Temp. | Humidity | Pressure | Rain* | Wind** | Luminosity | Snow |
|---|---|---|---|---|---|---|---|
| 1777672125 | 27.22° C | 92% | 1013.7 hPa | 0 mm | - | 14 W/m² | - |
| 1777671820 | 27.78° C | 90% | 1013.7 hPa | 0 mm | - | 24 W/m² | - |
| 1777671516 | 27.78° C | 89% | 1013.6 hPa | 0 mm | - | 28 W/m² | - |
| 1777671213 | 27.78° C | 90% | 1013.3 hPa | 0 mm | - | 24 W/m² | - |
| 1777670909 | 27.78° C | 90% | 1013.5 hPa | 0 mm | - | 20 W/m² | - |
| 1777670606 | 27.78° C | 90% | 1013.6 hPa | 0 mm | - | 29 W/m² | - |
| 1777670303 | 27.78° C | 89% | 1013.4 hPa | 0 mm | - | 34 W/m² | - |
| 1777670001 | 27.78° C | 90% | 1013.4 hPa | 0 mm | - | 25 W/m² | - |
| 1777669697 | 27.78° C | 89% | 1013.4 hPa | 0 mm | - | 13 W/m² | - |
| 1777669394 | 27.78° C | 87% | 1013.3 hPa | 0 mm | - | 10 W/m² | - |
| 1777669090 | 28.33° C | 86% | 1013.2 hPa | 0 mm | - | 13 W/m² | - |
| 1777668788 | 28.89° C | 85% | 1013.4 hPa | 0 mm | - | 19 W/m² | - |
| 1777668484 | 29.44° C | 81% | 1013.5 hPa | 0 mm | - | 25 W/m² | - |
| 1777668181 | 29.44° C | 79% | 1013.3 hPa | 0 mm | - | 23 W/m² | - |
| 1777658784 | 30.56° C | 77% | 1013.9 hPa | 0 mm | - | 167 W/m² | - |
| 1777658480 | 30.56° C | 77% | 1013.9 hPa | 0 mm | - | 160 W/m² | - |
| 1777658176 | 30.56° C | 77% | 1014 hPa | 0 mm | - | 318 W/m² | - |
| 1777657873 | 30.56° C | 77% | 1014.2 hPa | 0 mm | - | 199 W/m² | - |
| 1777657570 | 31.11° C | 76% | 1014.1 hPa | 0 mm | - | 263 W/m² | - |
| 1777657268 | 30.56° C | 77% | 1014.1 hPa | 0 mm | - | 328 W/m² | - |
| 1777656965 | 31.11° C | 76% | 1014.2 hPa | 0 mm | - | 338 W/m² | - |
| 1777656661 | 31.11° C | 76% | 1014.3 hPa | 0 mm | - | 300 W/m² | - |
| 1777656357 | 30.56° C | 78% | 1014.5 hPa | 0 mm | - | 269 W/m² | - |
| 1777656053 | 30.56° C | 77% | 1014.6 hPa | 0 mm | - | 334 W/m² | - |
| 1777655749 | 30.56° C | 78% | 1014.7 hPa | 0 mm | - | 223 W/m² | - |
* Rain latest hour (hover to see other rain measurements)
** Current wind speed in m/s (hover to see current wind gust speed)